Kossuth, Iowa
Current Conditions -  °F | °C
As of 3:53 AM on Monday 20 Oct 2014 (Local Time) from KBRL Reporting Station
Clear Clear  
Wind Chill: 52°   Ceiling: Unl
Heat Index: 52°   Visibility: 10mi
Dew Point: 47°   Wind: 7mph
Humidity: 83%   Direction: 260°W
Pressure: 29.88"   Gusts: NA
Location:  41.0155°N, 91.1055°W
Report Text: KBRL 200853Z AUTO 26006KT 10SM CLR 11/08 A2988 RMK AO2 SLP120 T01110083 56009 TSNO
Loading
Personal Weather Stations






























Interactive Weather Map
Tropical Storm Tracking
New forecast layout! Learn more

10-Day Weather Forecast

Advertisements
Track Severe Weather on mobile